createdAt,value
2016-03-19T00:00:45.376Z,0
2016-03-19T00:01:45.395Z,0
2016-03-19T00:02:39.100Z,0
2016-03-19T00:03:39.290Z,0
2016-03-19T00:04:39.122Z,0
2016-03-19T00:05:39.358Z,0
2016-03-19T00:06:45.486Z,0
2016-03-19T00:07:45.535Z,0
2016-03-19T00:08:40.632Z,0
2016-03-19T00:09:51.978Z,0
2016-03-19T00:10:39.106Z,0
2016-03-19T00:11:39.327Z,0
2016-03-19T00:12:39.283Z,0
2016-03-19T00:13:40.099Z,0
2016-03-19T00:14:45.632Z,0
2016-03-19T00:15:39.338Z,0
2016-03-19T00:16:39.435Z,0
2016-03-19T00:17:39.421Z,0
2016-03-19T00:18:39.535Z,0
2016-03-19T00:19:39.427Z,0
2016-03-19T00:20:39.290Z,0
2016-03-19T00:21:40.870Z,0
2016-03-19T00:22:39.498Z,0
2016-03-19T00:23:39.485Z,0
2016-03-19T00:24:39.613Z,0
2016-03-19T00:25:39.521Z,0
2016-03-19T00:26:40.134Z,0
2016-03-19T00:27:39.559Z,0
2016-03-19T00:28:40.420Z,0
2016-03-19T00:29:39.579Z,0
2016-03-19T00:30:52.363Z,0
2016-03-19T00:31:52.429Z,0
2016-03-19T00:33:05.275Z,0
2016-03-19T00:34:05.325Z,0
2016-03-19T00:34:39.624Z,0
2016-03-19T00:35:39.751Z,0
2016-03-19T00:36:39.770Z,0
2016-03-19T00:37:45.960Z,0
2016-03-19T00:38:46.042Z,0
2016-03-19T00:39:40.341Z,0
2016-03-19T00:40:39.765Z,0
2016-03-19T00:41:39.736Z,0
2016-03-19T00:42:46.036Z,0
2016-03-19T00:43:52.507Z,0
2016-03-19T00:44:39.855Z,0
2016-03-19T00:46:05.514Z,0
2016-03-19T00:46:40.078Z,0
2016-03-19T00:48:05.550Z,0
2016-03-19T00:48:40.146Z,0
2016-03-19T00:49:39.946Z,0
2016-03-19T00:50:46.167Z,0
2016-03-19T00:51:39.952Z,0
2016-03-19T00:52:52.688Z,0
2016-03-19T00:53:39.988Z,0
2016-03-19T00:54:40.069Z,0
2016-03-19T00:55:40.024Z,0
2016-03-19T00:56:40.215Z,0
2016-03-19T00:57:40.280Z,0
2016-03-19T00:58:40.048Z,0
2016-03-19T00:59:46.332Z,0
2016-03-19T01:00:40.101Z,0
2016-03-19T01:01:52.884Z,0
2016-03-19T01:02:40.153Z,0
2016-03-19T01:03:40.217Z,0
2016-03-19T01:04:40.174Z,0
2016-03-19T01:05:40.192Z,0
2016-03-19T01:06:40.976Z,0
2016-03-19T01:07:40.417Z,0
2016-03-19T01:08:40.222Z,0
2016-03-19T01:09:40.231Z,0
2016-03-19T01:10:40.350Z,0
2016-03-19T01:11:40.233Z,0
2016-03-19T01:12:40.414Z,0
2016-03-19T01:13:40.256Z,0
2016-03-19T01:14:40.380Z,0
2016-03-19T01:15:46.708Z,0
2016-03-19T01:16:40.347Z,0
2016-03-19T01:17:40.331Z,0
2016-03-19T01:18:40.316Z,0
2016-03-19T01:19:53.099Z,0
2016-03-19T01:20:41.788Z,0
2016-03-19T01:21:41.790Z,0
2016-03-19T01:22:40.370Z,0
2016-03-19T01:23:46.669Z,0
2016-03-19T01:24:46.686Z,0
2016-03-19T01:25:59.643Z,0
2016-03-19T01:26:40.488Z,0
2016-03-19T01:28:06.162Z,0
2016-03-19T01:28:46.853Z,0
2016-03-19T01:29:40.668Z,0
2016-03-19T01:30:40.531Z,0
2016-03-19T01:31:40.564Z,0
2016-03-19T01:32:40.550Z,0
2016-03-19T01:33:40.584Z,0
2016-03-19T01:34:40.587Z,0
2016-03-19T01:35:40.637Z,0
2016-03-19T01:36:53.390Z,0
2016-03-19T01:37:40.611Z,0
2016-03-19T01:38:59.973Z,0
2016-03-19T01:39:40.663Z,0
2016-03-19T01:41:00.494Z,0
2016-03-19T01:41:40.685Z,0
2016-03-19T01:42:40.733Z,0
2016-03-19T01:43:40.736Z,0
2016-03-19T01:44:40.817Z,0
2016-03-19T01:45:40.617Z,0
2016-03-19T01:46:40.823Z,0
2016-03-19T01:47:40.810Z,0
2016-03-19T01:48:40.829Z,0
2016-03-19T01:49:47.159Z,0
2016-03-19T01:50:40.880Z,0
2016-03-19T01:51:40.867Z,0
2016-03-19T01:52:40.886Z,0
2016-03-19T01:53:41.529Z,0
2016-03-19T01:54:40.938Z,0
2016-03-19T01:55:40.925Z,0
2016-03-19T01:56:53.693Z,0
2016-03-19T01:57:47.478Z,0
2016-03-19T01:58:40.964Z,0
2016-03-19T02:00:00.249Z,0
2016-03-19T02:00:41.423Z,0
2016-03-19T02:01:41.035Z,0
2016-03-19T02:02:41.053Z,0
2016-03-19T02:03:47.337Z,0
2016-03-19T02:04:47.356Z,0
2016-03-19T02:05:42.546Z,0
2016-03-19T02:06:53.736Z,0
2016-03-19T02:07:41.332Z,0
2016-03-19T02:09:00.351Z,0
2016-03-19T02:09:41.369Z,0
2016-03-19T02:11:00.591Z,0
2016-03-19T02:11:41.187Z,0
2016-03-19T02:12:41.221Z,0
2016-03-19T02:13:41.817Z,0
2016-03-19T02:14:41.304Z,0
2016-03-19T02:15:41.464Z,0
2016-03-19T02:16:47.529Z,0
2016-03-19T02:17:54.077Z,0
2016-03-19T02:18:41.330Z,0
2016-03-19T02:20:00.552Z,0
2016-03-19T02:20:41.335Z,0
2016-03-19T02:21:41.526Z,0
2016-03-19T02:22:47.732Z,0
2016-03-19T02:23:41.485Z,0
2016-03-19T02:24:54.175Z,0
2016-03-19T02:25:47.740Z,0
2016-03-19T02:26:41.462Z,0
2016-03-19T02:28:00.684Z,0
2016-03-19T02:28:47.732Z,0
2016-03-19T02:29:41.516Z,0
2016-03-19T02:30:41.519Z,0
2016-03-19T02:31:40.865Z,0
2016-03-19T02:32:41.556Z,0
2016-03-19T02:33:41.543Z,0
2016-03-19T02:34:41.562Z,0
2016-03-19T02:35:41.611Z,0
2016-03-19T02:36:41.691Z,0
2016-03-19T02:37:41.647Z,0
2016-03-19T02:38:41.666Z,0
2016-03-19T02:39:54.387Z,0
2016-03-19T02:40:41.655Z,0
2016-03-19T02:41:41.721Z,0
2016-03-19T02:42:42.536Z,0
2016-03-19T02:43:41.742Z,0
2016-03-19T02:44:54.510Z,0
2016-03-19T02:45:42.403Z,0
2016-03-19T02:46:41.766Z,0
2016-03-19T02:47:41.830Z,0
2016-03-19T02:48:43.208Z,0
2016-03-19T02:49:42.039Z,0
2016-03-19T02:50:54.574Z,0
2016-03-19T02:51:41.873Z,0
2016-03-19T02:52:41.140Z,0
2016-03-19T02:53:53.987Z,0
2016-03-19T02:54:41.896Z,0
2016-03-19T02:55:41.930Z,0
2016-03-19T02:56:41.932Z,0
2016-03-19T02:57:41.951Z,0
2016-03-19T02:58:43.392Z,0
2016-03-19T02:59:42.003Z,0
2016-03-19T03:00:54.866Z,0
2016-03-19T03:01:42.056Z,0
2016-03-19T03:03:39.045Z,0
2016-03-19T03:03:51.623Z,0
2016-03-19T03:04:51.626Z,0
2016-03-19T03:05:51.707Z,0
2016-03-19T03:06:51.725Z,0
2016-03-19T03:07:51.666Z,0
2016-03-19T03:09:04.512Z,0
2016-03-19T03:09:51.717Z,0
2016-03-19T03:11:10.830Z,0
2016-03-19T03:11:51.770Z,0
2016-03-19T03:13:17.289Z,0
2016-03-19T03:13:51.775Z,0
2016-03-19T03:14:52.402Z,0
2016-03-19T03:15:51.827Z,0
2016-03-19T03:16:51.846Z,0
2016-03-19T03:17:51.818Z,0
2016-03-19T03:18:51.866Z,0
2016-03-19T03:19:58.277Z,0
2016-03-19T03:20:51.888Z,0
2016-03-19T03:22:04.671Z,0
2016-03-19T03:23:04.659Z,0
2016-03-19T03:24:04.896Z,0
2016-03-19T03:25:11.180Z,0
2016-03-19T03:26:04.823Z,0
2016-03-19T03:27:23.407Z,0
2016-03-19T03:28:04.735Z,0
2016-03-19T03:28:52.050Z,0
2016-03-19T03:30:11.256Z,0
2016-03-19T03:30:52.024Z,0
2016-03-19T03:32:17.762Z,0
2016-03-19T03:32:52.109Z,0
2016-03-19T03:34:17.767Z,0
2016-03-19T03:34:52.739Z,0
2016-03-19T03:36:23.444Z,0
2016-03-19T03:36:52.212Z,0
2016-03-19T03:37:52.184Z,0
2016-03-19T03:38:52.250Z,0
2016-03-19T03:39:52.220Z,0
2016-03-19T03:40:52.239Z,0
2016-03-19T03:41:52.570Z,0
2016-03-19T03:42:52.886Z,0
2016-03-19T03:43:52.278Z,0
2016-03-19T03:44:52.296Z,0
2016-03-19T03:45:58.580Z,0
2016-03-19T03:46:52.333Z,0
2016-03-19T03:47:52.382Z,0
2016-03-19T03:48:52.354Z,0
2016-03-19T03:49:52.590Z,0
2016-03-19T03:51:05.125Z,0
2016-03-19T03:51:52.440Z,0
2016-03-19T03:52:52.412Z,0
2016-03-19T03:53:52.383Z,0
2016-03-19T03:54:52.463Z,0
2016-03-19T03:55:52.685Z,0
2016-03-19T03:56:53.093Z,0
2016-03-19T03:57:52.910Z,0
2016-03-19T03:58:58.803Z,0
2016-03-19T03:59:52.555Z,0
2016-03-19T04:01:05.370Z,0
2016-03-19T04:01:52.561Z,0
2016-03-19T04:04:21.347Z,0
2016-03-19T04:04:55.695Z,0
2016-03-19T04:05:57.103Z,0
2016-03-19T04:07:08.449Z,0
2016-03-19T04:07:55.748Z,0
2016-03-19T04:09:15.080Z,0
2016-03-19T04:09:57.192Z,0
2016-03-19T04:10:55.788Z,0
2016-03-19T04:11:58.931Z,0
2016-03-19T04:12:55.808Z,0
2016-03-19T04:13:55.844Z,0
2016-03-19T04:15:02.267Z,0
2016-03-19T04:15:55.739Z,0
2016-03-19T04:17:08.602Z,0
2016-03-19T04:17:55.916Z,0
2016-03-19T04:19:15.107Z,0
2016-03-19T04:20:08.563Z,0
2016-03-19T04:21:21.613Z,0
2016-03-19T04:21:55.958Z,0
2016-03-19T04:22:55.976Z,0
2016-03-19T04:23:55.995Z,0
2016-03-19T04:24:56.013Z,0
2016-03-19T04:26:02.906Z,0
2016-03-19T04:26:56.129Z,0
2016-03-19T04:28:08.787Z,0
2016-03-19T04:28:56.087Z,0
2016-03-19T04:29:56.089Z,0
2016-03-19T04:30:56.154Z,0
2016-03-19T04:31:56.110Z,0
2016-03-19T04:32:56.144Z,0
2016-03-19T04:33:56.756Z,0
2016-03-19T04:34:56.164Z,0
2016-03-19T04:35:56.184Z,0
2016-03-19T04:37:08.951Z,0
2016-03-19T04:37:56.251Z,0
2016-03-19T04:39:21.942Z,0
2016-03-19T04:40:09.006Z,0
2016-03-19T04:41:27.589Z,0
2016-03-19T04:42:15.527Z,0
2016-03-19T04:43:27.595Z,0
2016-03-19T04:43:56.377Z,0
2016-03-19T04:44:56.333Z,0
2016-03-19T04:46:02.600Z,0
2016-03-19T04:46:56.947Z,0
2016-03-19T04:48:02.638Z,0
2016-03-19T04:48:56.390Z,0
2016-03-19T04:49:56.409Z,0
2016-03-19T04:50:56.443Z,0
2016-03-19T04:51:56.446Z,0
2016-03-19T04:52:56.463Z,0
2016-03-19T04:53:56.513Z,0
2016-03-19T04:54:56.688Z,0
2016-03-19T04:55:56.518Z,0
2016-03-19T04:56:56.537Z,0
2016-03-19T04:57:56.524Z,0
2016-03-19T04:59:09.385Z,0
2016-03-19T04:59:56.560Z,0
2016-03-19T05:01:15.766Z,0
2016-03-19T05:01:56.582Z,0
2016-03-19T05:02:56.647Z,0
2016-03-19T05:04:09.384Z,0
2016-03-19T05:04:56.636Z,0
2016-03-19T05:06:59.782Z,0
2016-03-19T05:08:12.550Z,0
2016-03-19T05:09:12.584Z,0
2016-03-19T05:10:19.025Z,0
2016-03-19T05:11:19.075Z,0
2016-03-19T05:12:25.112Z,0
2016-03-19T05:12:59.878Z,0
2016-03-19T05:13:59.911Z,0
2016-03-19T05:15:06.148Z,0
2016-03-19T05:16:06.369Z,0
2016-03-19T05:17:19.138Z,0
2016-03-19T05:18:12.702Z,0
2016-03-19T05:19:01.393Z,0
2016-03-19T05:20:12.941Z,0
2016-03-19T05:21:00.133Z,0
2016-03-19T05:22:25.763Z,0
2016-03-19T05:23:00.169Z,0
2016-03-19T05:24:00.046Z,0
2016-03-19T05:25:00.097Z,5
2016-03-19T05:26:06.380Z,5
2016-03-19T05:27:12.851Z,5
2016-03-19T05:28:00.777Z,5
2016-03-19T05:29:19.388Z,5
2016-03-19T05:30:00.141Z,5
2016-03-19T05:31:25.803Z,10
2016-03-19T05:32:12.912Z,10
2016-03-19T05:33:25.870Z,10
2016-03-19T05:34:12.964Z,10
2016-03-19T05:35:25.907Z,10
2016-03-19T05:36:00.298Z,10
2016-03-19T05:38:10.006Z,15
2016-03-19T05:39:09.853Z,15
2016-03-19T05:40:16.262Z,20
2016-03-19T05:41:16.155Z,20
2016-03-19T05:42:29.191Z,20
2016-03-19T05:43:22.691Z,25
2016-03-19T05:44:29.197Z,25
2016-03-19T05:45:22.884Z,30
2016-03-19T05:46:09.966Z,30
2016-03-19T05:48:00.658Z,35
2016-03-19T05:48:32.411Z,35
2016-03-19T05:49:13.286Z,35
2016-03-19T05:50:13.866Z,35
2016-03-19T05:51:13.292Z,40
2016-03-19T05:52:13.294Z,40
2016-03-19T05:53:13.313Z,45
2016-03-19T05:54:26.208Z,50
2016-03-19T05:55:20.411Z,50
2016-03-19T05:56:39.041Z,50
2016-03-19T05:57:26.138Z,55
2016-03-19T05:58:13.435Z,55
2016-03-19T05:59:39.113Z,60
2016-03-19T06:00:26.177Z,60
2016-03-19T06:02:16.054Z,65
2016-03-19T06:02:28.637Z,65
2016-03-19T06:03:28.685Z,70
2016-03-19T06:04:35.001Z,75
2016-03-19T06:05:29.128Z,75
2016-03-19T06:06:28.553Z,80
2016-03-19T06:07:34.962Z,85
2016-03-19T06:08:34.980Z,90
2016-03-19T06:09:28.734Z,95
2016-03-19T06:10:41.533Z,105
2016-03-19T06:11:35.081Z,105
2016-03-19T06:12:48.007Z,105
2016-03-19T06:13:41.541Z,110
2016-03-19T06:15:25.059Z,155
2016-03-19T06:15:50.358Z,165
2016-03-19T06:16:50.361Z,165
2016-03-19T06:18:41.069Z,130
2016-03-19T06:19:41.088Z,135
2016-03-19T06:20:53.841Z,140
2016-03-19T06:21:53.844Z,160
2016-03-19T06:23:31.677Z,270
2016-03-19T06:23:44.255Z,270
2016-03-19T06:24:44.257Z,215
2016-03-19T06:25:44.308Z,155
2016-03-19T06:26:44.326Z,150
2016-03-19T06:27:44.499Z,155
2016-03-19T06:28:44.346Z,165
2016-03-19T06:29:44.380Z,185
2016-03-19T06:30:44.199Z,330
2016-03-19T06:31:44.451Z,345
2016-03-19T06:32:44.376Z,300
2016-03-19T06:33:44.519Z,215
2016-03-19T06:34:44.443Z,185
2016-03-19T06:35:44.509Z,175
2016-03-19T06:36:44.465Z,175
2016-03-19T06:37:44.576Z,175
2016-03-19T06:38:44.486Z,175
2016-03-19T06:39:44.566Z,185
2016-03-19T06:40:44.601Z,190
2016-03-19T06:41:44.556Z,200
2016-03-19T06:42:45.231Z,210
2016-03-19T06:43:44.593Z,220
2016-03-19T06:44:44.642Z,230
2016-03-19T06:45:44.598Z,235
2016-03-19T06:46:44.663Z,245
2016-03-19T06:47:44.667Z,265
2016-03-19T06:48:44.700Z,370
2016-03-19T06:49:44.703Z,515
2016-03-19T06:50:44.736Z,390
2016-03-19T06:51:44.724Z,350
2016-03-19T06:52:57.492Z,270
2016-03-19T06:53:44.776Z,270
2016-03-19T06:54:44.794Z,275
2016-03-19T06:55:44.782Z,290
2016-03-19T06:56:44.799Z,290
2016-03-19T06:57:44.865Z,305
2016-03-19T06:58:44.836Z,625
2016-03-19T06:59:44.902Z,585
2016-03-19T07:00:44.888Z,405
2016-03-19T07:01:45.063Z,360
2016-03-19T07:02:44.987Z,300
2016-03-19T07:03:45.038Z,280
2016-03-19T07:04:45.009Z,275
2016-03-19T07:05:45.230Z,285
2016-03-19T07:06:45.030Z,285
2016-03-19T07:07:45.032Z,295
2016-03-19T07:08:45.051Z,305
2016-03-19T07:09:45.101Z,380
2016-03-19T07:10:45.118Z,285
2016-03-19T07:11:45.340Z,280
2016-03-19T07:12:45.420Z,275
2016-03-19T07:13:45.126Z,275
2016-03-19T07:14:45.270Z,280
2016-03-19T07:15:45.210Z,285
2016-03-19T07:16:45.229Z,290
2016-03-19T07:17:45.247Z,305
2016-03-19T07:18:45.265Z,355
2016-03-19T07:19:45.283Z,290
2016-03-19T07:20:45.505Z,280
2016-03-19T07:21:45.352Z,270
2016-03-19T07:22:45.339Z,265
2016-03-19T07:23:45.435Z,270
2016-03-19T07:24:45.360Z,280
2016-03-19T07:25:45.378Z,295
2016-03-19T07:26:45.411Z,300
2016-03-19T07:27:46.680Z,300
2016-03-19T07:28:45.417Z,305
2016-03-19T07:29:46.077Z,295
2016-03-19T07:30:45.485Z,295
2016-03-19T07:31:45.550Z,290
2016-03-19T07:32:45.538Z,285
2016-03-19T07:33:46.977Z,280
2016-03-19T07:34:58.105Z,280
2016-03-19T07:35:45.577Z,280
2016-03-19T07:36:45.720Z,290
2016-03-19T07:37:45.457Z,300
2016-03-19T07:38:45.648Z,310
2016-03-19T07:39:45.618Z,315
2016-03-19T07:40:45.637Z,315
2016-03-19T07:41:45.686Z,315
2016-03-19T07:42:45.752Z,305
2016-03-19T07:43:45.723Z,290
2016-03-19T07:44:45.726Z,280
2016-03-19T07:45:45.744Z,285
2016-03-19T07:46:45.762Z,300
2016-03-19T07:47:45.797Z,310
2016-03-19T07:48:45.845Z,315
2016-03-19T07:49:45.958Z,315
2016-03-19T07:50:45.867Z,310
2016-03-19T07:51:45.979Z,310
2016-03-19T07:52:45.872Z,305
2016-03-19T07:53:46.016Z,305
2016-03-19T07:54:45.955Z,310
2016-03-19T07:55:45.958Z,310
2016-03-19T07:56:45.991Z,305
2016-03-19T07:57:45.979Z,295
2016-03-19T07:58:45.997Z,290
2016-03-19T07:59:46.047Z,295
2016-03-19T08:00:46.221Z,300
2016-03-19T08:01:46.068Z,305
2016-03-19T08:02:46.196Z,310
2016-03-19T08:03:46.089Z,315
2016-03-19T08:04:46.124Z,320
2016-03-19T08:05:46.329Z,315
2016-03-19T08:06:46.207Z,315
2016-03-19T08:07:46.178Z,310
2016-03-19T08:08:46.228Z,310
2016-03-19T08:09:46.214Z,315
2016-03-19T08:10:46.248Z,325
2016-03-19T08:11:46.251Z,330
2016-03-19T08:12:46.817Z,335
2016-03-19T08:13:46.460Z,345
2016-03-19T08:14:46.307Z,345
2016-03-19T08:15:52.622Z,350
2016-03-19T08:16:46.375Z,355
2016-03-19T08:17:46.408Z,360
2016-03-19T08:18:46.426Z,370
2016-03-19T08:19:46.508Z,370
2016-03-19T08:20:46.417Z,370
2016-03-19T08:21:52.716Z,370
2016-03-19T08:22:45.844Z,370
2016-03-19T08:23:46.519Z,370
2016-03-19T08:24:46.536Z,380
2016-03-19T08:25:46.539Z,380
2016-03-19T08:26:46.589Z,370
2016-03-19T08:27:46.576Z,355
2016-03-19T08:28:46.438Z,360
2016-03-19T08:30:05.096Z,360
2016-03-19T08:30:47.130Z,385
2016-03-19T08:32:12.336Z,400
2016-03-19T08:32:46.746Z,405
2016-03-19T08:33:47.467Z,405
2016-03-19T08:34:46.736Z,400
2016-03-19T08:35:46.738Z,405
2016-03-19T08:36:46.803Z,410
2016-03-19T08:37:46.774Z,415
2016-03-19T08:38:46.840Z,410
2016-03-19T08:39:59.670Z,405
2016-03-19T08:40:46.829Z,415
2016-03-19T08:42:12.567Z,435
2016-03-19T08:42:47.476Z,435
2016-03-19T08:44:18.306Z,430
2016-03-19T08:44:49.934Z,430
2016-03-19T08:45:46.953Z,425
2016-03-19T08:46:46.955Z,425
2016-03-19T08:47:46.958Z,435
2016-03-19T08:48:47.022Z,440
2016-03-19T08:49:47.010Z,450
2016-03-19T08:50:47.106Z,460
2016-03-19T08:51:59.811Z,460
2016-03-19T08:52:47.284Z,455
2016-03-19T08:54:56.508Z,430
2016-03-19T08:56:02.994Z,405
2016-03-19T08:56:50.436Z,400
2016-03-19T08:58:09.516Z,390
2016-03-19T08:58:50.268Z,380
2016-03-19T08:59:50.381Z,365
2016-03-19T09:00:50.305Z,355
2016-03-19T09:01:50.371Z,350
2016-03-19T09:02:50.419Z,350
2016-03-19T09:03:50.422Z,350
2016-03-19T09:04:50.394Z,355
2016-03-19T09:05:50.709Z,360
2016-03-19T09:06:50.416Z,365
2016-03-19T09:07:50.621Z,375
2016-03-19T09:08:50.577Z,375
2016-03-19T09:10:03.267Z,370
2016-03-19T09:10:58.191Z,360
2016-03-19T09:11:50.631Z,355
2016-03-19T09:13:03.321Z,335
2016-03-19T09:13:50.620Z,315
2016-03-19T09:14:50.702Z,290
2016-03-19T09:15:50.642Z,270
2016-03-19T09:17:03.567Z,250
2016-03-19T09:17:50.851Z,245
2016-03-19T09:19:03.462Z,235
2016-03-19T09:19:52.169Z,235
2016-03-19T09:20:50.780Z,240
2016-03-19T09:22:10.003Z,245
2016-03-19T09:23:03.552Z,250
2016-03-19T09:24:16.570Z,265
2016-03-19T09:25:10.119Z,280
2016-03-19T09:26:41.625Z,285
2016-03-19T09:27:19.859Z,280
2016-03-19T09:28:44.849Z,280
2016-03-19T09:28:57.443Z,275
2016-03-19T09:29:57.492Z,265
2016-03-19T09:30:58.058Z,255
2016-03-19T09:31:57.560Z,255
2016-03-19T09:32:57.532Z,255
2016-03-19T09:33:58.957Z,265
2016-03-19T09:34:57.568Z,265
2016-03-19T09:35:57.649Z,265
2016-03-19T09:36:57.605Z,260
2016-03-19T09:37:57.608Z,255
2016-03-19T09:38:57.688Z,255
2016-03-19T09:39:57.754Z,260
2016-03-19T09:40:57.679Z,265
2016-03-19T09:41:57.712Z,270
2016-03-19T09:42:57.715Z,285
2016-03-19T09:43:57.749Z,290
2016-03-19T09:44:57.751Z,285
2016-03-19T09:45:57.926Z,280
2016-03-19T09:47:10.553Z,270
2016-03-19T09:47:57.932Z,270
2016-03-19T09:49:17.184Z,265
2016-03-19T09:49:58.484Z,265
2016-03-19T09:51:55.098Z,280
2016-03-19T09:52:07.692Z,285
2016-03-19T09:53:07.711Z,300
2016-03-19T09:54:07.697Z,315
2016-03-19T09:55:07.731Z,325
2016-03-19T09:56:08.047Z,330
2016-03-19T09:57:07.830Z,340
2016-03-19T09:58:08.052Z,350
2016-03-19T09:59:07.852Z,365
2016-03-19T10:00:07.933Z,370
2016-03-19T10:01:26.389Z,370
2016-03-19T10:02:07.907Z,360
2016-03-19T10:03:07.925Z,340
2016-03-19T10:04:08.099Z,330
2016-03-19T10:05:08.118Z,330
2016-03-19T10:06:08.121Z,325
2016-03-19T10:07:08.186Z,320
2016-03-19T10:08:08.141Z,325
2016-03-19T10:09:08.113Z,330
2016-03-19T10:10:08.162Z,330
2016-03-19T10:11:08.227Z,335
2016-03-19T10:12:08.762Z,345
2016-03-19T10:13:21.265Z,345
2016-03-19T10:14:08.143Z,360
2016-03-19T10:15:08.209Z,360
2016-03-19T10:16:08.211Z,370
2016-03-19T10:17:14.417Z,380
2016-03-19T10:18:08.185Z,385
2016-03-19T10:19:08.187Z,390
2016-03-19T10:20:08.184Z,390
2016-03-19T10:21:08.228Z,385
2016-03-19T10:22:08.398Z,380
2016-03-19T10:23:08.239Z,380
2016-03-19T10:24:08.532Z,380
2016-03-19T10:25:08.298Z,375
2016-03-19T10:26:08.330Z,380
2016-03-19T10:27:08.331Z,390
2016-03-19T10:28:08.364Z,405
2016-03-19T10:29:08.333Z,410
2016-03-19T10:30:08.366Z,410
2016-03-19T10:31:08.399Z,410
2016-03-19T10:32:08.401Z,405
2016-03-19T10:33:08.465Z,400
2016-03-19T10:34:08.389Z,400
2016-03-19T10:35:08.502Z,405
2016-03-19T10:36:08.457Z,410
2016-03-19T10:37:08.599Z,400
2016-03-19T10:38:08.523Z,395
2016-03-19T10:39:08.557Z,395
2016-03-19T10:40:08.544Z,390
2016-03-19T10:41:08.562Z,390
2016-03-19T10:42:08.627Z,390
2016-03-19T10:43:08.630Z,385
2016-03-19T10:44:08.680Z,375
2016-03-19T10:45:08.652Z,360
2016-03-19T10:46:08.795Z,345
2016-03-19T10:47:08.688Z,340
2016-03-19T10:48:09.066Z,335
2016-03-19T10:49:08.771Z,340
2016-03-19T10:50:08.977Z,345
2016-03-19T10:51:21.527Z,360
2016-03-19T10:52:08.810Z,360
2016-03-19T10:53:08.829Z,360
2016-03-19T10:54:08.847Z,350
2016-03-19T10:55:08.882Z,345
2016-03-19T10:56:08.885Z,340
2016-03-19T10:57:08.902Z,335
2016-03-19T10:58:21.702Z,330
2016-03-19T10:59:08.970Z,330
2016-03-19T11:00:21.692Z,340
2016-03-19T11:01:09.101Z,340
2016-03-19T11:02:09.025Z,345
2016-03-19T11:03:09.168Z,350
2016-03-19T11:04:09.062Z,345
2016-03-19T11:05:09.080Z,345
2016-03-19T11:06:09.083Z,345
2016-03-19T11:07:09.132Z,355
2016-03-19T11:08:09.166Z,365
2016-03-19T11:09:09.153Z,370
2016-03-19T11:10:09.156Z,375
2016-03-19T11:11:09.175Z,385
2016-03-19T11:12:09.208Z,400
2016-03-19T11:13:09.211Z,405
2016-03-19T11:14:09.620Z,395
2016-03-19T11:15:09.278Z,385
2016-03-19T11:16:09.391Z,380
2016-03-19T11:17:15.566Z,380
2016-03-19T11:18:09.411Z,370
2016-03-19T11:19:09.352Z,360
2016-03-19T11:20:09.401Z,360
2016-03-19T11:21:09.405Z,360
2016-03-19T11:22:09.391Z,370
2016-03-19T11:23:09.519Z,380
2016-03-19T11:24:09.427Z,395
2016-03-19T11:25:09.446Z,400
2016-03-19T11:26:09.496Z,405
2016-03-19T11:27:22.217Z,405
2016-03-19T11:28:09.533Z,400
2016-03-19T11:29:09.582Z,405
2016-03-19T11:30:09.569Z,405
2016-03-19T11:31:09.587Z,410
2016-03-19T11:32:12.621Z,420
2016-03-19T11:33:09.826Z,430
2016-03-19T11:34:28.876Z,435
2016-03-19T11:35:09.692Z,440
2016-03-19T11:36:09.695Z,450
2016-03-19T11:37:09.745Z,435
2016-03-19T11:38:09.748Z,420
2016-03-19T11:39:09.750Z,415
2016-03-19T11:40:09.909Z,410
2016-03-19T11:41:09.802Z,410
2016-03-19T11:42:09.820Z,405
2016-03-19T11:43:10.041Z,405
2016-03-19T11:44:09.919Z,390
2016-03-19T11:45:09.905Z,380
2016-03-19T11:46:09.908Z,380
2016-03-19T11:47:09.787Z,380
2016-03-19T11:48:09.930Z,390
2016-03-19T11:49:10.058Z,400
2016-03-19T11:50:09.998Z,405
2016-03-19T11:51:13.625Z,415
2016-03-19T11:52:10.034Z,420
2016-03-19T11:53:10.147Z,425
2016-03-19T11:54:10.087Z,435
2016-03-19T11:55:10.121Z,435
2016-03-19T11:56:10.123Z,430
2016-03-19T11:57:16.438Z,420
2016-03-19T11:58:10.191Z,410
2016-03-19T11:59:10.193Z,410
2016-03-19T12:00:10.228Z,410
2016-03-19T12:01:10.262Z,425
2016-03-19T12:02:10.436Z,430
2016-03-19T12:03:23.002Z,445
2016-03-19T12:04:10.348Z,455
2016-03-19T12:05:36.009Z,450
2016-03-19T12:06:10.353Z,445
2016-03-19T12:07:10.372Z,435
2016-03-19T12:08:10.406Z,425
2016-03-19T12:09:10.095Z,420
2016-03-19T12:10:10.411Z,395
2016-03-19T12:11:10.445Z,375
2016-03-19T12:12:10.495Z,370
2016-03-19T12:13:10.560Z,360
2016-03-19T12:14:10.484Z,360
2016-03-19T12:15:10.519Z,360
2016-03-19T12:16:10.739Z,360
2016-03-19T12:17:10.570Z,360
2016-03-19T12:18:10.619Z,370
2016-03-19T12:19:11.201Z,370
2016-03-19T12:20:10.594Z,375
2016-03-19T12:21:10.644Z,375
2016-03-19T12:22:10.693Z,375
2016-03-19T12:23:10.727Z,375
2016-03-19T12:24:10.730Z,380
2016-03-19T12:25:10.733Z,390
2016-03-19T12:26:10.766Z,395
2016-03-19T12:27:10.737Z,395
2016-03-19T12:28:10.850Z,395
2016-03-19T12:29:10.852Z,395
2016-03-19T12:30:10.824Z,400
2016-03-19T12:31:10.874Z,400
2016-03-19T12:32:10.892Z,400
2016-03-19T12:33:10.910Z,405
2016-03-19T12:34:10.928Z,405
2016-03-19T12:35:17.213Z,415
2016-03-19T12:36:10.965Z,420
2016-03-19T12:37:23.811Z,435
2016-03-19T12:38:12.517Z,440
2016-03-19T12:39:11.145Z,445
2016-03-19T12:41:14.120Z,445
2016-03-19T12:42:33.359Z,435
2016-03-19T12:43:14.187Z,405
2016-03-19T12:44:33.412Z,365
2016-03-19T12:45:26.943Z,340
2016-03-19T12:46:34.275Z,345
2016-03-19T12:47:14.260Z,345
2016-03-19T12:48:16.373Z,350
2016-03-19T12:49:14.922Z,365
2016-03-19T12:50:33.537Z,400
2016-03-19T12:51:27.069Z,415
2016-03-19T12:53:29.573Z,430
2016-03-19T12:54:29.592Z,420
2016-03-19T12:55:29.610Z,420
2016-03-19T12:56:35.896Z,420
2016-03-19T12:57:29.615Z,420
2016-03-19T12:58:36.137Z,405
2016-03-19T12:59:29.683Z,395
2016-03-19T13:00:42.502Z,375
2016-03-19T13:01:36.301Z,370
2016-03-19T13:03:45.712Z,340
2016-03-19T13:04:58.668Z,330
2016-03-19T13:05:32.999Z,320
2016-03-19T13:07:48.286Z,290
2016-03-19T13:09:13.945Z,260
2016-03-19T13:09:48.291Z,255
2016-03-19T13:11:50.937Z,235
2016-03-19T13:12:03.531Z,235
2016-03-19T13:13:03.581Z,235
2016-03-19T13:14:04.192Z,230
2016-03-19T13:15:16.367Z,230
2016-03-19T13:16:03.636Z,225
2016-03-19T13:18:00.625Z,210
2016-03-19T13:18:32.394Z,210
2016-03-19T13:19:13.472Z,210
2016-03-19T13:20:33.883Z,210
2016-03-19T13:21:13.477Z,200
2016-03-19T13:22:13.292Z,195
2016-03-19T13:23:26.044Z,185
2016-03-19T13:24:13.329Z,185
2016-03-19T13:25:13.535Z,185
2016-03-19T13:26:14.194Z,185
2016-03-19T13:27:13.430Z,180
2016-03-19T13:28:13.417Z,175
2016-03-19T13:29:14.013Z,165
2016-03-19T13:30:26.470Z,160
2016-03-19T13:31:14.129Z,160
2016-03-19T13:32:32.696Z,155
2016-03-19T13:33:26.290Z,155
2016-03-19T13:34:13.543Z,155
2016-03-19T13:35:13.576Z,155
2016-03-19T13:36:13.580Z,160
2016-03-19T13:37:14.192Z,165
2016-03-19T13:38:13.648Z,170
2016-03-19T13:39:13.619Z,180
2016-03-19T13:40:19.950Z,175
2016-03-19T13:41:13.890Z,180
2016-03-19T13:42:20.174Z,180
2016-03-19T13:43:13.834Z,190
2016-03-19T13:44:20.383Z,195
2016-03-19T13:45:14.464Z,210
2016-03-19T13:46:13.779Z,225
2016-03-19T13:47:13.859Z,240
2016-03-19T13:48:13.814Z,245
2016-03-19T13:49:13.833Z,245
2016-03-19T13:50:14.086Z,250
2016-03-19T13:51:13.886Z,255
2016-03-19T13:52:14.139Z,255
2016-03-19T13:53:13.892Z,250
2016-03-19T13:54:13.940Z,245
2016-03-19T13:55:13.927Z,230
2016-03-19T13:56:14.008Z,225
2016-03-19T13:57:26.761Z,210
2016-03-19T13:58:20.263Z,205
2016-03-19T13:59:33.238Z,210
2016-03-19T14:00:20.347Z,215
2016-03-19T14:02:23.791Z,220
2016-03-19T14:02:36.621Z,220
2016-03-19T14:03:36.515Z,230
2016-03-19T14:04:37.221Z,250
2016-03-19T14:05:49.192Z,270
2016-03-19T14:06:37.710Z,270
2016-03-19T14:07:55.681Z,270
2016-03-19T14:08:36.528Z,265
2016-03-19T14:09:37.140Z,265
2016-03-19T14:10:49.409Z,265
2016-03-19T14:11:37.192Z,265
2016-03-19T14:12:36.601Z,265
2016-03-19T14:13:37.260Z,265
2016-03-19T14:14:49.466Z,260
2016-03-19T14:15:37.250Z,260
2016-03-19T14:16:55.862Z,260
2016-03-19T14:17:49.552Z,260
2016-03-19T14:19:02.352Z,260
2016-03-19T14:20:02.401Z,260
2016-03-19T14:21:02.436Z,260
2016-03-19T14:22:02.438Z,255